Time;durP1;ratioP1;P1;durP2;ratioP2;P2;SDS_P1;SDS_P2;PMS_P1;PMS_P2;Temp;Humidity;BMP_temperature;BMP_pressure;BME280_temperature;BME280_humidity;BME280_pressure;Samples;Min_cycle;Max_cycle;Signal;HPM_P1;HPM_P2
2023/04/28 00:01:20;;;;;;;3.50;1.13;;;21.10;99.90;;;;;;5071957;28;20196;-75
2023/04/28 00:03:52;;;;;;;2.45;1.13;;;21.20;99.90;;;;;;5071224;28;20710;-76
2023/04/28 00:06:23;;;;;;;3.10;1.20;;;21.20;99.90;;;;;;5071698;28;20199;-76
2023/04/28 00:08:54;;;;;;;2.72;1.02;;;21.20;99.90;;;;;;5071878;28;20235;-75
2023/04/28 00:11:25;;;;;;;1.95;1.10;;;21.30;99.90;;;;;;5071287;28;20641;-76
2023/04/28 00:13:58;;;;;;;1.77;0.90;;;21.50;99.90;;;;;;5069280;28;20722;-76
2023/04/28 00:16:29;;;;;;;3.03;0.90;;;21.50;99.90;;;;;;5068556;28;20223;-76
2023/04/28 00:19:00;;;;;;;3.28;1.10;;;21.60;99.90;;;;;;5070181;28;20565;-76
2023/04/28 00:21:31;;;;;;;2.30;0.90;;;21.70;99.90;;;;;;5057771;28;20199;-76
2023/04/28 00:24:02;;;;;;;3.00;0.98;;;21.80;99.90;;;;;;5070945;28;20575;-75
2023/04/28 00:26:33;;;;;;;3.15;0.80;;;21.90;99.90;;;;;;5070274;28;20195;-75
2023/04/28 00:29:07;;;;;;;3.40;1.10;;;22.10;99.90;;;;;;5070631;28;20241;-76
2023/04/28 00:31:38;;;;;;;4.35;1.20;;;22.20;99.90;;;;;;5068888;28;20566;-76
2023/04/28 00:34:13;;;;;;;1.88;1.08;;;22.30;99.90;;;;;;5067994;28;20227;-76
2023/04/28 00:36:44;;;;;;;3.20;1.20;;;22.40;99.90;;;;;;5066726;28;20625;-76
2023/04/28 00:39:18;;;;;;;3.97;0.98;;;22.50;99.90;;;;;;5069049;28;20196;-76
2023/04/28 00:41:50;;;;;;;3.45;0.98;;;22.60;99.90;;;;;;5069476;28;20195;-76
2023/04/28 00:44:23;;;;;;;4.00;1.02;;;22.70;99.90;;;;;;5068089;28;20574;-76
2023/04/28 00:46:55;;;;;;;2.58;1.00;;;22.80;99.90;;;;;;5067192;28;20222;-76
2023/04/28 00:49:26;;;;;;;2.40;1.05;;;22.80;99.90;;;;;;5067229;28;20200;-75
2023/04/28 00:52:02;;;;;;;3.45;0.90;;;22.90;99.90;;;;;;5066762;28;20643;-76
2023/04/28 00:54:34;;;;;;;3.05;1.08;;;22.90;99.90;;;;;;5069276;28;20223;-76
2023/04/28 00:57:07;;;;;;;4.07;0.90;;;23.00;99.90;;;;;;5051137;28;20196;-76
2023/04/28 00:59:40;;;;;;;2.75;0.80;;;23.10;99.90;;;;;;5068082;28;20200;-76
2023/04/28 01:02:16;;;;;;;2.60;1.05;;;23.10;99.90;;;;;;5067711;28;20193;-76
2023/04/28 01:04:47;;;;;;;3.38;0.90;;;23.20;99.90;;;;;;5069738;28;20195;-76
2023/04/28 01:07:18;;;;;;;4.35;0.90;;;23.30;99.90;;;;;;5069799;28;20240;-76
2023/04/28 01:09:49;;;;;;;2.65;0.80;;;23.40;99.90;;;;;;5068291;28;20199;-76
2023/04/28 01:12:20;;;;;;;3.03;1.10;;;23.40;99.90;;;;;;5069144;28;20200;-77
2023/04/28 01:14:53;;;;;;;1.27;0.60;;;23.40;99.90;;;;;;5071893;28;20698;-76
2023/04/28 01:17:25;;;;;;;2.55;0.80;;;23.50;99.90;;;;;;5071056;28;20220;-76
2023/04/28 01:19:56;;;;;;;2.63;0.80;;;23.70;99.90;;;;;;5068223;28;20224;-76
2023/04/28 01:22:28;;;;;;;2.22;0.80;;;23.80;99.90;;;;;;5069803;28;20200;-76
2023/04/28 01:25:02;;;;;;;3.42;0.70;;;23.90;99.90;;;;;;5073804;28;20218;-75
2023/04/28 01:27:33;;;;;;;2.97;0.70;;;23.90;99.90;;;;;;5073650;28;20203;-76
2023/04/28 01:30:05;;;;;;;1.88;0.80;;;24.10;99.90;;;;;;5070026;28;20686;-76
2023/04/28 01:32:38;;;;;;;1.77;0.70;;;24.10;99.90;;;;;;5071710;28;20212;-76
2023/04/28 01:35:09;;;;;;;1.75;0.63;;;24.20;99.90;;;;;;5073620;28;20706;-77
2023/04/28 01:37:40;;;;;;;2.20;0.70;;;24.40;99.90;;;;;;5073027;28;20196;-76
2023/04/28 01:40:16;;;;;;;1.98;0.60;;;24.50;99.90;;;;;;5072824;28;20192;-76
2023/04/28 01:42:47;;;;;;;1.83;0.60;;;24.70;99.90;;;;;;5066314;28;20187;-77
2023/04/28 01:45:19;;;;;;;2.83;0.60;;;24.80;99.90;;;;;;5070794;28;20207;-77
2023/04/28 01:47:50;;;;;;;2.85;0.70;;;24.90;99.90;;;;;;5070696;28;20667;-76
2023/04/28 01:50:21;;;;;;;2.85;1.00;;;25.00;99.90;;;;;;5070863;28;20242;-77
2023/04/28 01:52:52;;;;;;;1.40;0.50;;;25.10;99.90;;;;;;5072757;28;20204;-77
2023/04/28 01:55:27;;;;;;;2.42;0.82;;;25.20;99.90;;;;;;5070345;28;20744;-77
2023/04/28 01:57:58;;;;;;;2.55;0.50;;;25.30;99.90;;;;;;5070725;28;20207;-77
2023/04/28 02:00:29;;;;;;;1.33;0.63;;;25.50;99.90;;;;;;5071962;28;20223;-77
2023/04/28 02:03:00;;;;;;;1.15;0.60;;;25.60;99.90;;;;;;5071505;28;20224;-76
2023/04/28 02:05:31;;;;;;;3.83;0.70;;;25.70;99.90;;;;;;5072983;28;20200;-76
2023/04/28 02:08:02;;;;;;;1.83;0.70;;;25.80;99.90;;;;;;5072901;28;20239;-76
2023/04/28 02:10:35;;;;;;;2.15;0.70;;;25.90;99.90;;;;;;5072371;28;20658;-76
2023/04/28 02:13:07;;;;;;;2.03;0.73;;;26.00;99.90;;;;;;5072080;28;20200;-76
2023/04/28 02:15:42;;;;;;;1.70;0.60;;;26.10;99.90;;;;;;5053010;28;20203;-75
2023/04/28 02:18:13;;;;;;;4.93;0.75;;;26.10;99.90;;;;;;5068720;28;20207;-76
2023/04/28 02:20:44;;;;;;;1.05;0.60;;;26.20;99.90;;;;;;5070023;28;20199;-76
2023/04/28 02:23:15;;;;;;;4.03;0.60;;;26.30;99.90;;;;;;5068579;28;20203;-75
2023/04/28 02:25:48;;;;;;;1.30;0.60;;;26.30;99.90;;;;;;5068678;28;20204;-76
2023/04/28 02:28:19;;;;;;;2.97;0.80;;;26.50;99.90;;;;;;5071511;28;20570;-74
2023/04/28 02:30:50;;;;;;;1.67;0.60;;;26.50;99.90;;;;;;5069079;28;20187;-75
2023/04/28 02:33:21;;;;;;;1.83;0.65;;;26.60;99.90;;;;;;5069029;28;20191;-76
2023/04/28 02:36:01;;;;;;;0.98;0.60;;;26.80;99.90;;;;;;5070201;28;20193;-75
2023/04/28 02:38:36;;;;;;;1.23;0.60;;;26.80;99.90;;;;;;5069606;28;20535;-74
2023/04/28 02:41:10;;;;;;;4.13;0.60;;;26.90;99.90;;;;;;5069493;28;20198;-76
2023/04/28 02:43:41;;;;;;;1.58;0.50;;;26.90;99.90;;;;;;5071098;28;20207;-75
2023/04/28 02:46:12;;;;;;;0.50;0.45;;;27.00;99.90;;;;;;5063260;28;20192;-77
2023/04/28 02:48:43;;;;;;;1.33;0.65;;;27.00;99.90;;;;;;5070638;28;20203;-77
2023/04/28 02:51:14;;;;;;;1.80;0.60;;;27.00;99.90;;;;;;5069159;28;20196;-75
2023/04/28 02:53:46;;;;;;;0.70;0.47;;;27.00;99.90;;;;;;5069076;28;20265;-76
2023/04/28 02:56:19;;;;;;;2.80;0.70;;;27.10;99.80;;;;;;5068615;28;20192;-79
2023/04/28 02:58:50;;;;;;;0.90;0.55;;;27.10;99.20;;;;;;5066330;28;20199;-77
2023/04/28 03:01:21;;;;;;;0.75;0.50;;;27.20;98.80;;;;;;5068910;28;20212;-77
2023/04/28 03:03:52;;;;;;;2.65;0.70;;;27.20;98.00;;;;;;5066174;28;20671;-77
2023/04/28 03:06:23;;;;;;;2.30;0.40;;;27.30;98.20;;;;;;5071011;28;20287;-77
2023/04/28 03:08:55;;;;;;;10.63;1.15;;;27.40;98.10;;;;;;5068873;28;20738;-76
2023/04/28 03:11:28;;;;;;;2.42;0.73;;;27.40;98.20;;;;;;5070510;28;20674;-77
2023/04/28 03:13:59;;;;;;;2.03;0.70;;;27.40;98.40;;;;;;5070620;28;20227;-76
2023/04/28 03:16:30;;;;;;;1.55;0.70;;;27.50;98.30;;;;;;5065984;28;20204;-76
2023/04/28 03:19:01;;;;;;;2.13;0.73;;;27.50;96.70;;;;;;5070532;28;20574;-76
2023/04/28 03:21:32;;;;;;;1.10;0.65;;;27.40;97.70;;;;;;5061737;28;20204;-77
2023/04/28 03:24:04;;;;;;;1.83;0.73;;;27.40;98.50;;;;;;5051235;28;20232;-76
2023/04/28 03:26:37;;;;;;;1.00;0.65;;;27.40;97.70;;;;;;5051031;28;20213;-76
2023/04/28 03:29:08;;;;;;;0.93;0.60;;;27.30;97.20;;;;;;5050670;28;20197;-76
2023/04/28 03:31:41;;;;;;;2.00;0.60;;;27.30;97.90;;;;;;5050940;28;20196;-76
2023/04/28 03:34:12;;;;;;;2.63;0.57;;;27.30;97.00;;;;;;5056803;28;20593;-75
2023/04/28 03:36:43;;;;;;;1.77;0.70;;;27.30;97.00;;;;;;5070871;28;20200;-75
2023/04/28 03:39:14;;;;;;;2.95;0.73;;;27.20;98.60;;;;;;5071334;28;20204;-76
2023/04/28 03:41:47;;;;;;;0.93;0.57;;;27.30;98.90;;;;;;5070574;28;20275;-76
2023/04/28 03:44:18;;;;;;;2.25;0.60;;;27.30;97.30;;;;;;5070827;28;20203;-76
2023/04/28 03:46:49;;;;;;;1.80;0.80;;;27.30;97.20;;;;;;5071153;28;20200;-76
2023/04/28 03:49:21;;;;;;;1.70;0.60;;;27.30;97.30;;;;;;5070681;28;20204;-76
2023/04/28 03:51:52;;;;;;;1.42;0.63;;;27.30;98.10;;;;;;5070689;28;20207;-76
2023/04/28 03:54:23;;;;;;;1.63;0.70;;;27.30;97.90;;;;;;5070503;28;20224;-76
2023/04/28 03:56:56;;;;;;;2.45;0.60;;;27.20;97.60;;;;;;5070581;28;20708;-76
2023/04/28 03:59:27;;;;;;;2.05;0.68;;;27.20;98.10;;;;;;5070216;28;20196;-75
2023/04/28 04:01:58;;;;;;;2.65;0.60;;;27.10;98.40;;;;;;5070728;28;20199;-76
2023/04/28 04:04:29;;;;;;;1.15;0.63;;;27.10;98.40;;;;;;5070611;28;20208;-76
2023/04/28 04:07:02;;;;;;;1.17;0.68;;;27.10;98.90;;;;;;5070656;28;20223;-75
2023/04/28 04:09:33;;;;;;;1.75;0.80;;;27.10;99.50;;;;;;5070541;28;20199;-77
2023/04/28 04:12:07;;;;;;;2.13;0.80;;;27.20;99.80;;;;;;5070264;28;20217;-76
2023/04/28 04:14:38;;;;;;;1.35;0.60;;;27.20;99.10;;;;;;5068593;28;20643;-76
2023/04/28 04:17:09;;;;;;;2.40;0.80;;;27.20;98.70;;;;;;5069998;28;20203;-76
2023/04/28 04:19:40;;;;;;;2.28;0.65;;;27.20;99.00;;;;;;5071693;28;20195;-76
2023/04/28 04:22:11;;;;;;;4.20;0.60;;;27.20;98.40;;;;;;5070092;28;20203;-75
2023/04/28 04:24:42;;;;;;;1.55;0.60;;;27.20;98.80;;;;;;5069675;28;20208;-76
2023/04/28 04:27:15;;;;;;;1.70;0.70;;;27.20;99.40;;;;;;5069800;28;20654;-75
2023/04/28 04:29:46;;;;;;;1.65;0.73;;;27.20;99.70;;;;;;5070121;28;20198;-76
2023/04/28 04:32:17;;;;;;;2.17;0.70;;;27.10;99.80;;;;;;5070153;28;20198;-76
2023/04/28 04:34:48;;;;;;;1.48;0.60;;;27.00;99.90;;;;;;5069929;28;20224;-76
2023/04/28 04:37:19;;;;;;;1.48;0.60;;;27.00;99.90;;;;;;5069936;28;20192;-76
2023/04/28 04:39:50;;;;;;;0.98;0.55;;;27.00;99.90;;;;;;5071116;28;20207;-76
2023/04/28 04:42:23;;;;;;;0.85;0.60;;;27.00;99.90;;;;;;5069751;28;20196;-76
2023/04/28 04:44:57;;;;;;;3.55;0.68;;;27.00;99.90;;;;;;5070435;28;20215;-76
2023/04/28 04:47:28;;;;;;;3.45;0.85;;;26.90;99.90;;;;;;5073538;28;20203;-76
2023/04/28 04:49:59;;;;;;;2.95;0.75;;;26.90;99.90;;;;;;5073756;28;20195;-76
2023/04/28 04:52:30;;;;;;;2.28;0.70;;;26.90;99.90;;;;;;5084328;28;20199;-76
2023/04/28 04:55:01;;;;;;;2.80;0.57;;;27.00;99.90;;;;;;5078205;28;20239;-76
2023/04/28 04:57:34;;;;;;;1.20;0.70;;;27.00;99.90;;;;;;5073773;28;20199;-75
2023/04/28 05:00:05;;;;;;;3.78;0.80;;;27.00;99.90;;;;;;5073403;28;20204;-76
2023/04/28 05:02:38;;;;;;;3.13;0.98;;;27.00;99.90;;;;;;5074097;28;20202;-76
2023/04/28 05:05:09;;;;;;;3.88;1.05;;;27.00;99.90;;;;;;5075103;28;20202;-76
2023/04/28 05:07:40;;;;;;;3.58;1.00;;;27.00;99.90;;;;;;5074193;28;20227;-75
2023/04/28 05:10:12;;;;;;;3.90;1.10;;;27.00;99.90;;;;;;5073902;28;20196;-77
2023/04/28 05:12:45;;;;;;;3.42;1.10;;;26.90;99.90;;;;;;5075628;28;20200;-76
2023/04/28 05:15:16;;;;;;;2.58;0.90;;;26.90;99.90;;;;;;5075193;28;20228;-76
2023/04/28 05:17:47;;;;;;;5.50;1.10;;;26.60;99.90;;;;;;5073687;28;20203;-76
2023/04/28 05:20:19;;;;;;;3.35;1.10;;;26.60;99.90;;;;;;5073795;28;20196;-77
2023/04/28 05:22:50;;;;;;;3.50;1.00;;;26.50;99.90;;;;;;5073194;28;20683;-76
2023/04/28 05:25:21;;;;;;;2.78;1.02;;;26.40;99.90;;;;;;5073343;28;20225;-77
2023/04/28 05:27:54;;;;;;;3.97;1.00;;;26.30;99.90;;;;;;5075527;28;20642;-77
2023/04/28 05:30:27;;;;;;;3.10;1.10;;;26.20;99.90;;;;;;5074510;28;20212;-77
2023/04/28 05:32:58;;;;;;;2.35;1.17;;;26.10;99.90;;;;;;5075544;28;20190;-76
2023/04/28 05:35:30;;;;;;;3.97;1.08;;;26.10;99.90;;;;;;5073709;28;20234;-75
2023/04/28 05:38:01;;;;;;;5.32;1.30;;;26.20;99.90;;;;;;5074068;28;20207;-76
2023/04/28 05:40:33;;;;;;;3.22;1.23;;;26.20;99.90;;;;;;5073140;28;20223;-75
2023/04/28 05:43:06;;;;;;;3.03;1.13;;;26.20;99.90;;;;;;5074161;28;20200;-76
2023/04/28 05:45:37;;;;;;;3.25;1.30;;;26.10;99.90;;;;;;5072459;28;20689;-75
2023/04/28 05:48:08;;;;;;;5.35;1.20;;;26.20;99.90;;;;;;5074166;28;20207;-76
2023/04/28 05:50:40;;;;;;;6.13;1.08;;;26.20;99.90;;;;;;5071992;28;20663;-76
2023/04/28 05:53:11;;;;;;;3.78;1.17;;;26.20;99.90;;;;;;5075554;28;20287;-76
2023/04/28 05:55:42;;;;;;;3.78;1.20;;;26.20;99.90;;;;;;5073292;28;20220;-76
2023/04/28 05:58:15;;;;;;;5.07;1.30;;;26.30;99.90;;;;;;5073348;28;20575;-76
2023/04/28 06:00:46;;;;;;;3.78;0.98;;;26.20;99.90;;;;;;5075890;28;20210;-78
2023/04/28 06:03:17;;;;;;;5.22;1.48;;;26.00;99.90;;;;;;5073211;28;20200;-76
2023/04/28 06:05:48;;;;;;;4.78;1.23;;;25.80;99.90;;;;;;5072333;28;20196;-77
2023/04/28 06:08:20;;;;;;;5.53;1.35;;;25.80;99.90;;;;;;5072959;28;20596;-78
2023/04/28 06:10:51;;;;;;;5.15;1.40;;;25.80;99.90;;;;;;5071774;28;20232;-76
2023/04/28 06:13:25;;;;;;;7.60;1.52;;;25.90;99.90;;;;;;5072245;28;20203;-76
2023/04/28 06:15:56;;;;;;;3.13;1.40;;;26.00;99.90;;;;;;5071955;28;20846;-76
2023/04/28 06:18:29;;;;;;;4.63;1.50;;;26.10;99.90;;;;;;5071690;28;20192;-76
2023/04/28 06:21:00;;;;;;;3.45;1.23;;;26.10;99.90;;;;;;5072551;28;20662;-77
2023/04/28 06:23:31;;;;;;;4.72;1.30;;;26.10;99.90;;;;;;5072342;28;20211;-76
2023/04/28 06:26:02;;;;;;;5.10;1.15;;;26.20;99.90;;;;;;5072459;28;20228;-77
2023/04/28 06:28:35;;;;;;;4.22;1.20;;;26.10;99.90;;;;;;5072669;28;20549;-76
2023/04/28 06:31:06;;;;;;;5.45;1.30;;;26.00;99.90;;;;;;5072978;28;20659;-76
2023/04/28 06:33:38;;;;;;;4.65;1.33;;;26.10;99.90;;;;;;5071606;28;20203;-75
2023/04/28 06:36:12;;;;;;;4.50;1.35;;;26.00;99.90;;;;;;5071628;28;20224;-76
2023/04/28 06:38:43;;;;;;;4.85;1.40;;;25.90;99.90;;;;;;5071472;28;20245;-76
2023/04/28 06:41:15;;;;;;;5.82;1.50;;;25.90;99.90;;;;;;5071338;28;20203;-76
2023/04/28 06:43:48;;;;;;;3.95;1.20;;;25.90;99.90;;;;;;5071678;28;20203;-76
2023/04/28 06:46:19;;;;;;;7.18;1.50;;;25.70;99.90;;;;;;5071169;28;20199;-76
2023/04/28 06:48:50;;;;;;;2.85;1.40;;;25.50;99.90;;;;;;5071366;28;20321;-76
2023/04/28 06:51:21;;;;;;;7.00;1.73;;;25.40;99.90;;;;;;5071198;28;20282;-77
2023/04/28 06:53:52;;;;;;;7.00;1.45;;;25.30;99.90;;;;;;5071782;28;20196;-77
2023/04/28 06:56:23;;;;;;;4.72;1.38;;;25.20;99.90;;;;;;5073160;28;20223;-77
2023/04/28 06:58:57;;;;;;;3.25;1.08;;;25.10;99.90;;;;;;5072634;28;20212;-76
2023/04/28 07:01:28;;;;;;;3.50;1.20;;;25.00;99.90;;;;;;5073681;28;20244;-76
2023/04/28 07:03:59;;;;;;;6.13;1.85;;;24.90;99.90;;;;;;5073488;28;20659;-76
2023/04/28 07:06:31;;;;;;;4.53;1.50;;;24.80;99.90;;;;;;5072941;28;20199;-76
2023/04/28 07:09:03;;;;;;;4.43;1.30;;;24.70;99.90;;;;;;5072316;28;20204;-77
2023/04/28 07:11:34;;;;;;;4.78;1.27;;;24.60;99.90;;;;;;5072039;28;20269;-76
2023/04/28 07:14:07;;;;;;;5.30;1.48;;;24.50;99.90;;;;;;5073368;28;20196;-77
2023/04/28 07:16:39;;;;;;;5.68;1.60;;;24.40;99.90;;;;;;5068535;28;20227;-76
2023/04/28 07:19:10;;;;;;;3.85;1.60;;;24.40;99.90;;;;;;5073242;28;20274;-77
2023/04/28 07:21:41;;;;;;;5.38;1.45;;;24.40;99.90;;;;;;5073163;28;20196;-77
2023/04/28 07:24:12;;;;;;;3.60;1.30;;;24.30;99.90;;;;;;5073463;28;20204;-76
2023/04/28 07:26:43;;;;;;;7.90;1.70;;;24.30;99.90;;;;;;5073195;28;20597;-76
2023/04/28 07:29:16;;;;;;;6.43;1.67;;;24.20;99.90;;;;;;5072190;28;20210;-77
2023/04/28 07:31:47;;;;;;;3.72;1.30;;;24.20;99.90;;;;;;5072945;28;20544;-76
2023/04/28 07:34:18;;;;;;;6.50;1.20;;;24.10;99.90;;;;;;5072429;28;20199;-76
2023/04/28 07:36:49;;;;;;;3.20;1.20;;;24.10;99.90;;;;;;5072301;28;20228;-76
2023/04/28 07:39:20;;;;;;;5.13;1.45;;;24.10;99.90;;;;;;5072347;28;20567;-76
2023/04/28 07:41:51;;;;;;;6.95;1.63;;;24.00;99.90;;;;;;5072996;28;20207;-76
2023/04/28 07:44:24;;;;;;;3.78;1.27;;;24.00;99.90;;;;;;5072814;28;20202;-77
2023/04/28 07:46:56;;;;;;;3.10;1.02;;;23.90;99.90;;;;;;5072656;28;20204;-76
2023/04/28 07:49:27;;;;;;;4.88;1.60;;;23.90;99.90;;;;;;5071570;28;20200;-77
2023/04/28 07:51:58;;;;;;;4.07;1.40;;;23.80;99.90;;;;;;5072514;28;20199;-78
2023/04/28 07:54:29;;;;;;;4.22;1.55;;;23.80;99.90;;;;;;5072768;28;20196;-76
2023/04/28 07:57:01;;;;;;;3.72;1.20;;;23.80;99.90;;;;;;5072077;28;20216;-77
2023/04/28 07:59:35;;;;;;;8.02;1.80;;;23.80;99.90;;;;;;5074839;28;20259;-76
2023/04/28 08:02:06;;;;;;;6.57;1.42;;;23.70;99.90;;;;;;5071978;28;20261;-76
2023/04/28 08:04:38;;;;;;;4.88;1.50;;;23.70;99.90;;;;;;5070687;28;20207;-76
2023/04/28 08:07:10;;;;;;;7.22;1.60;;;23.70;99.90;;;;;;5070395;28;20228;-77
2023/04/28 08:09:45;;;;;;;5.97;1.63;;;23.60;99.90;;;;;;5070765;28;20219;-76
2023/04/28 08:12:17;;;;;;;3.42;1.65;;;23.60;99.90;;;;;;5070006;28;20708;-77
2023/04/28 08:14:52;;;;;;;3.22;1.38;;;23.60;99.90;;;;;;5070594;28;20294;-77
2023/04/28 08:17:23;;;;;;;4.90;1.60;;;23.50;99.90;;;;;;5069853;28;20585;-78
2023/04/28 08:19:54;;;;;;;5.07;1.45;;;23.50;99.90;;;;;;5070363;28;20567;-78
2023/04/28 08:22:25;;;;;;;4.50;1.42;;;23.50;99.90;;;;;;5074191;28;20254;-77
2023/04/28 08:24:56;;;;;;;4.30;1.40;;;23.40;99.90;;;;;;5060127;28;20780;-77
2023/04/28 08:27:27;;;;;;;4.47;1.50;;;23.40;99.90;;;;;;5074127;28;20207;-76
2023/04/28 08:30:00;;;;;;;4.30;1.30;;;23.40;99.90;;;;;;5074239;28;20216;-77
2023/04/28 08:32:31;;;;;;;5.28;1.60;;;23.40;99.90;;;;;;5074771;28;20684;-77
2023/04/28 08:35:03;;;;;;;5.57;1.17;;;23.30;99.90;;;;;;5074463;28;20196;-77
2023/04/28 08:37:35;;;;;;;5.18;1.38;;;23.30;99.90;;;;;;5074492;28;20360;-76
2023/04/28 08:40:08;;;;;;;6.45;1.48;;;23.40;99.90;;;;;;5074219;28;20199;-77
2023/04/28 08:42:39;;;;;;;4.18;1.33;;;23.30;99.90;;;;;;5073951;28;20578;-77
2023/04/28 08:45:16;;;;;;;3.88;1.10;;;23.20;99.90;;;;;;5074136;28;20200;-76
2023/04/28 08:47:51;;;;;;;4.43;1.50;;;23.20;99.90;;;;;;5073841;28;20195;-77
2023/04/28 08:50:24;;;;;;;5.47;1.60;;;23.20;99.90;;;;;;5070123;28;20195;-79
2023/04/28 08:52:56;;;;;;;2.55;1.40;;;23.20;99.90;;;;;;5073416;28;20204;-76
2023/04/28 08:55:28;;;;;;;9.05;1.95;;;23.20;99.90;;;;;;5073140;28;20829;-77
2023/04/28 08:58:00;;;;;;;3.95;1.55;;;23.10;99.90;;;;;;5073348;28;20678;-77
2023/04/28 09:00:33;;;;;;;5.80;1.70;;;23.10;99.90;;;;;;5073804;28;20685;-76
2023/04/28 09:03:04;;;;;;;4.30;1.27;;;23.10;99.90;;;;;;5074013;28;20207;-77
2023/04/28 09:05:36;;;;;;;5.13;1.50;;;23.10;99.90;;;;;;5073707;28;20206;-76
2023/04/28 09:08:07;;;;;;;5.75;1.60;;;23.10;99.90;;;;;;5073230;28;20224;-77
2023/04/28 09:10:39;;;;;;;2.63;1.23;;;23.10;99.90;;;;;;5073363;28;20207;-75
2023/04/28 09:13:10;;;;;;;4.25;1.30;;;23.10;99.90;;;;;;5073705;28;20196;-77
2023/04/28 09:15:44;;;;;;;3.05;1.38;;;23.00;99.90;;;;;;5072845;28;20637;-76
2023/04/28 09:18:18;;;;;;;8.05;1.58;;;23.00;99.90;;;;;;5072949;28;20279;-76
2023/04/28 09:20:49;;;;;;;4.68;1.35;;;23.00;99.90;;;;;;5073161;28;20207;-76
2023/04/28 09:23:21;;;;;;;4.57;1.40;;;23.00;99.90;;;;;;5072973;28;20227;-76
2023/04/28 09:26:04;;;;;;;4.57;1.50;;;22.90;99.90;;;;;;5072140;28;20223;-76
2023/04/28 09:28:36;;;;;;;4.78;1.20;;;22.90;99.90;;;;;;5073351;28;20210;-77
2023/04/28 09:31:23;;;;;;;4.30;1.25;;;22.90;99.90;;;;;;5072687;28;20207;-77
2023/04/28 09:34:01;;;;;;;5.28;1.60;;;22.90;99.90;;;;;;5073079;28;20210;-77
2023/04/28 09:36:32;;;;;;;4.10;1.33;;;22.90;99.90;;;;;;5073245;28;20215;-77
2023/04/28 09:39:04;;;;;;;4.78;1.55;;;22.90;99.90;;;;;;5073188;28;20214;-77
2023/04/28 09:41:42;;;;;;;5.53;1.40;;;22.80;99.90;;;;;;5073067;28;20211;-77
2023/04/28 09:44:20;;;;;;;4.38;1.60;;;22.90;99.90;;;;;;5072749;28;20206;-77
2023/04/28 09:46:53;;;;;;;4.38;1.42;;;22.80;99.90;;;;;;5072544;28;20253;-77
2023/04/28 09:49:24;;;;;;;4.10;1.40;;;22.80;99.90;;;;;;5072205;28;20206;-76
2023/04/28 09:51:55;;;;;;;3.88;1.10;;;22.80;99.90;;;;;;5072585;28;20204;-76
2023/04/28 09:54:28;;;;;;;4.25;1.50;;;22.80;99.90;;;;;;5072520;28;20216;-76
2023/04/28 09:57:00;;;;;;;5.40;1.40;;;22.80;99.90;;;;;;5072557;28;20223;-76
2023/04/28 09:59:32;;;;;;;4.00;1.40;;;22.80;99.90;;;;;;5073397;28;20283;-76
2023/04/28 10:02:07;;;;;;;4.22;1.38;;;22.80;99.90;;;;;;5072913;28;20204;-77
2023/04/28 10:04:39;;;;;;;4.63;1.40;;;22.80;99.90;;;;;;5072406;28;20543;-76
2023/04/28 10:07:10;;;;;;;4.82;1.00;;;22.80;99.90;;;;;;5072381;28;20258;-77
2023/04/28 10:09:43;;;;;;;4.38;1.35;;;22.80;99.90;;;;;;5072287;28;20204;-77
2023/04/28 10:12:15;;;;;;;4.70;1.20;;;22.80;99.90;;;;;;5072451;28;20204;-76
2023/04/28 10:14:46;;;;;;;3.75;1.27;;;22.80;99.90;;;;;;5072506;28;20207;-76
2023/04/28 10:17:20;;;;;;;4.78;1.48;;;22.80;99.90;;;;;;5062069;28;20700;-77
2023/04/28 10:19:54;;;;;;;2.90;1.30;;;22.80;99.90;;;;;;5065025;28;20239;-76
2023/04/28 10:22:39;;;;;;;5.30;1.20;;;22.80;99.90;;;;;;5068951;28;20215;-78
2023/04/28 10:25:29;;;;;;;5.68;1.60;;;22.80;99.90;;;;;;5066536;28;20208;-76
2023/04/28 10:28:01;;;;;;;3.47;1.20;;;22.80;99.90;;;;;;5052502;28;20557;-78
2023/04/28 10:30:33;;;;;;;4.07;1.58;;;22.70;99.90;;;;;;5062293;28;20536;-78
2023/04/28 10:33:29;;;;;;;4.45;1.40;;;22.80;99.90;;;;;;5072397;28;20256;-77
2023/04/28 10:36:00;;;;;;;3.40;1.27;;;22.80;99.90;;;;;;5062497;28;20196;-75
2023/04/28 10:38:31;;;;;;;4.75;1.17;;;22.80;99.90;;;;;;5068997;28;20193;-76
2023/04/28 10:41:03;;;;;;;2.00;1.20;;;22.80;99.90;;;;;;5068202;28;20196;-76
2023/04/28 10:43:39;;;;;;;4.75;1.50;;;22.80;99.90;;;;;;5068308;28;20200;-77
2023/04/28 10:46:11;;;;;;;3.88;1.40;;;22.80;99.90;;;;;;5069279;28;20200;-77
2023/04/28 10:49:00;;;;;;;2.78;1.40;;;22.80;99.90;;;;;;5067645;28;20650;-77
2023/04/28 10:51:35;;;;;;;3.08;1.40;;;22.80;99.90;;;;;;5070171;28;20188;-77
2023/04/28 10:54:16;;;;;;;3.40;1.30;;;22.70;99.90;;;;;;5065875;28;20780;-76
2023/04/28 10:57:22;;;;;;;3.90;0.93;;;22.80;99.90;;;;;;5070350;28;20220;-77
2023/04/28 10:59:53;;;;;;;1.63;0.98;;;22.70;99.90;;;;;;5068767;28;20195;-77
2023/04/28 11:02:43;;;;;;;8.77;1.38;;;22.70;99.90;;;;;;5060987;28;20204;-77
2023/04/28 11:05:17;;;;;;;5.00;1.33;;;22.70;99.90;;;;;;5051112;28;20254;-77
2023/04/28 11:08:23;;;;;;;4.05;1.00;;;22.70;99.90;;;;;;5050757;28;20319;-77
2023/04/28 11:11:14;;;;;;;3.00;0.80;;;22.70;99.90;;;;;;5055974;28;20204;-77
2023/04/28 11:13:47;;;;;;;2.85;0.90;;;22.70;99.90;;;;;;5057180;28;20200;-76
2023/04/28 11:16:24;;;;;;;2.33;0.93;;;22.70;99.90;;;;;;5070884;28;20659;-78
2023/04/28 11:19:03;;;;;;;1.10;0.88;;;22.70;99.90;;;;;;5070650;28;20200;-76
2023/04/28 11:21:36;;;;;;;3.25;0.90;;;22.70;99.90;;;;;;5057198;28;20541;-76
2023/04/28 11:24:12;;;;;;;2.30;0.90;;;22.60;99.90;;;;;;5070262;28;20192;-77
2023/04/28 11:26:44;;;;;;;2.78;1.00;;;22.60;99.90;;;;;;5070549;28;20204;-77
2023/04/28 11:29:16;;;;;;;2.25;1.00;;;22.60;99.90;;;;;;5069984;28;20222;-77
2023/04/28 11:31:53;;;;;;;1.85;0.90;;;22.70;99.90;;;;;;5069142;28;20200;-77
2023/04/28 11:34:25;;;;;;;2.90;1.10;;;22.60;99.90;;;;;;5069561;28;20321;-77
2023/04/28 11:36:58;;;;;;;1.77;0.85;;;22.60;99.90;;;;;;5050415;28;20220;-77
2023/04/28 11:39:30;;;;;;;3.92;1.00;;;22.60;99.90;;;;;;5069777;28;20659;-76
2023/04/28 11:42:02;;;;;;;3.13;1.00;;;22.60;99.90;;;;;;5071334;28;20195;-77
2023/04/28 11:44:33;;;;;;;2.58;0.98;;;22.60;99.90;;;;;;5072106;28;20196;-78
2023/04/28 11:47:06;;;;;;;2.50;0.82;;;22.60;99.90;;;;;;5070553;28;20867;-77
2023/04/28 11:49:46;;;;;;;1.13;0.80;;;22.60;99.90;;;;;;5070940;28;20191;-77
2023/04/28 11:52:20;;;;;;;2.70;0.93;;;22.50;99.90;;;;;;5070764;28;20331;-76
2023/04/28 11:54:56;;;;;;;3.00;1.00;;;22.50;99.90;;;;;;5069897;28;20679;-77
2023/04/28 11:57:37;;;;;;;3.67;0.85;;;22.50;99.90;;;;;;5079058;28;20874;-78
2023/04/28 12:00:21;;;;;;;2.88;0.90;;;22.50;99.90;;;;;;5075295;28;20184;-77
2023/04/28 12:02:52;;;;;;;1.13;0.80;;;22.50;99.90;;;;;;5079458;28;20578;-76
2023/04/28 12:05:23;;;;;;;1.65;0.90;;;22.50;99.90;;;;;;5072277;28;20198;-76
2023/04/28 12:07:56;;;;;;;2.70;0.80;;;22.50;99.90;;;;;;5071171;28;20231;-77
2023/04/28 12:10:28;;;;;;;1.60;0.70;;;22.40;99.90;;;;;;5072642;28;20223;-76
2023/04/28 12:12:59;;;;;;;2.15;0.88;;;22.40;99.90;;;;;;5073294;28;20196;-77
2023/04/28 12:15:43;;;;;;;2.22;1.00;;;22.50;99.90;;;;;;5071356;28;20192;-75
2023/04/28 12:18:18;;;;;;;4.40;0.85;;;22.50;99.90;;;;;;5072978;28;20227;-76
2023/04/28 12:20:49;;;;;;;2.00;0.73;;;22.50;99.90;;;;;;5071499;28;20223;-77
2023/04/28 12:23:33;;;;;;;2.58;0.88;;;22.50;99.90;;;;;;5069597;28;20227;-75
2023/04/28 12:26:04;;;;;;;2.00;0.80;;;22.40;99.90;;;;;;5053436;28;20197;-76
2023/04/28 12:28:42;;;;;;;1.42;0.70;;;22.40;99.90;;;;;;5073774;28;20199;-75
2023/04/28 12:31:13;;;;;;;1.55;0.55;;;22.40;99.90;;;;;;5073217;28;20215;-76
2023/04/28 12:33:44;;;;;;;1.60;0.60;;;22.40;99.90;;;;;;5071419;28;20223;-76
2023/04/28 12:36:15;;;;;;;2.45;0.85;;;22.40;99.90;;;;;;5071445;28;20196;-76
2023/04/28 12:38:52;;;;;;;2.53;0.90;;;22.40;99.90;;;;;;5063815;28;20314;-77
2023/04/28 12:41:24;;;;;;;1.52;0.82;;;22.40;99.90;;;;;;5072359;28;20575;-75
2023/04/28 12:43:55;;;;;;;2.08;0.80;;;22.40;99.90;;;;;;5070001;28;20196;-76
2023/04/28 12:46:26;;;;;;;1.58;0.80;;;22.40;99.90;;;;;;5073523;28;20218;-77
2023/04/28 12:48:57;;;;;;;1.27;0.85;;;22.40;99.90;;;;;;5073770;28;20200;-76
2023/04/28 12:51:28;;;;;;;3.33;0.85;;;22.40;99.90;;;;;;5072210;28;20203;-75
2023/04/28 12:54:03;;;;;;;2.58;0.90;;;22.40;99.90;;;;;;5058841;28;20552;-76
2023/04/28 12:56:34;;;;;;;2.13;0.80;;;22.30;99.90;;;;;;5071965;28;20627;-75
2023/04/28 12:59:06;;;;;;;1.25;1.00;;;22.30;99.90;;;;;;5072087;28;20541;-76
2023/04/28 13:01:38;;;;;;;1.70;1.00;;;22.30;99.90;;;;;;5071631;28;20252;-77
2023/04/28 13:04:08;;;;;;;2.20;0.80;;;22.30;99.90;;;;;;5054324;28;20250;-75
2023/04/28 13:06:39;;;;;;;0.80;0.60;;;22.30;99.90;;;;;;5054556;28;20204;-76
2023/04/28 13:09:12;;;;;;;1.52;0.60;;;22.30;99.90;;;;;;5056374;28;20207;-76
2023/04/28 13:11:43;;;;;;;1.58;0.80;;;22.30;99.90;;;;;;5076336;28;20195;-76
2023/04/28 13:14:13;;;;;;;4.75;1.02;;;22.30;99.90;;;;;;5076883;28;20199;-76
2023/04/28 13:16:44;;;;;;;1.45;0.60;;;22.20;99.90;;;;;;5076757;28;20196;-76